sensor_id;sensor_type;location;lat;lon;timestamp;temperature;humidity
15095;DHT22;7648;52.264;9.632;2022-11-20T00:01:29;-2.70;99.90
15095;DHT22;7648;52.264;9.632;2022-11-20T00:05:32;-2.70;99.90
15095;DHT22;7648;52.264;9.632;2022-11-20T00:09:36;-2.70;99.90
15095;DHT22;7648;52.264;9.632;2022-11-20T00:13:38;-2.70;99.90
15095;DHT22;7648;52.264;9.632;2022-11-20T00:17:40;-2.70;99.90
15095;DHT22;7648;52.264;9.632;2022-11-20T00:21:42;-2.80;99.90
15095;DHT22;7648;52.264;9.632;2022-11-20T00:25:45;-2.80;99.90
15095;DHT22;7648;52.264;9.632;2022-11-20T00:29:47;-2.70;99.90
15095;DHT22;7648;52.264;9.632;2022-11-20T00:33:49;-2.90;99.90
15095;DHT22;7648;52.264;9.632;2022-11-20T00:37:51;-2.90;99.90
15095;DHT22;7648;52.264;9.632;2022-11-20T00:41:55;-2.80;99.90
15095;DHT22;7648;52.264;9.632;2022-11-20T00:45:57;-2.80;99.90
15095;DHT22;7648;52.264;9.632;2022-11-20T00:49:59;-2.90;99.90
15095;DHT22;7648;52.264;9.632;2022-11-20T00:54:01;-2.90;99.90
15095;DHT22;7648;52.264;9.632;2022-11-20T00:58:05;-2.90;99.90
15095;DHT22;7648;52.264;9.632;2022-11-20T01:02:07;-2.90;99.90
15095;DHT22;7648;52.264;9.632;2022-11-20T01:06:13;-2.80;99.90
15095;DHT22;7648;52.264;9.632;2022-11-20T01:10:15;-2.70;99.90
15095;DHT22;7648;52.264;9.632;2022-11-20T01:14:19;-2.70;99.90
15095;DHT22;7648;52.264;9.632;2022-11-20T01:18:21;-2.70;99.90
15095;DHT22;7648;52.264;9.632;2022-11-20T01:22:23;-2.80;99.90
15095;DHT22;7648;52.264;9.632;2022-11-20T01:26:27;-2.70;99.90
15095;DHT22;7648;52.264;9.632;2022-11-20T01:30:30;-2.70;99.90
15095;DHT22;7648;52.264;9.632;2022-11-20T01:34:32;-2.70;99.90
15095;DHT22;7648;52.264;9.632;2022-11-20T01:38:34;-2.70;99.90
15095;DHT22;7648;52.264;9.632;2022-11-20T01:42:36;-2.60;99.90
15095;DHT22;7648;52.264;9.632;2022-11-20T01:46:59;-2.50;99.90
15095;DHT22;7648;52.264;9.632;2022-11-20T01:51:03;-2.50;99.90
15095;DHT22;7648;52.264;9.632;2022-11-20T01:55:08;-2.50;99.90
15095;DHT22;7648;52.264;9.632;2022-11-20T01:59:14;-2.50;99.90
15095;DHT22;7648;52.264;9.632;2022-11-20T02:03:19;-2.50;99.90
15095;DHT22;7648;52.264;9.632;2022-11-20T02:07:22;-2.60;99.90
15095;DHT22;7648;52.264;9.632;2022-11-20T02:11:25;-2.60;99.90
15095;DHT22;7648;52.264;9.632;2022-11-20T02:15:27;-2.60;99.90
15095;DHT22;7648;52.264;9.632;2022-11-20T02:19:31;-2.70;99.90
15095;DHT22;7648;52.264;9.632;2022-11-20T02:23:37;-2.70;99.90
15095;DHT22;7648;52.264;9.632;2022-11-20T02:27:41;-2.70;99.90
15095;DHT22;7648;52.264;9.632;2022-11-20T02:31:43;-2.70;99.90
15095;DHT22;7648;52.264;9.632;2022-11-20T02:35:46;-2.80;99.90
15095;DHT22;7648;52.264;9.632;2022-11-20T02:39:50;-2.80;99.90
15095;DHT22;7648;52.264;9.632;2022-11-20T02:43:54;-2.90;99.90
15095;DHT22;7648;52.264;9.632;2022-11-20T02:47:56;-2.80;99.90
15095;DHT22;7648;52.264;9.632;2022-11-20T02:51:58;-2.80;99.90
15095;DHT22;7648;52.264;9.632;2022-11-20T02:56:00;-2.90;99.90
15095;DHT22;7648;52.264;9.632;2022-11-20T03:00:05;-2.90;99.90
15095;DHT22;7648;52.264;9.632;2022-11-20T03:04:08;-2.90;99.90
15095;DHT22;7648;52.264;9.632;2022-11-20T03:08:10;-2.90;99.90
15095;DHT22;7648;52.264;9.632;2022-11-20T03:12:12;-3.00;99.90
15095;DHT22;7648;52.264;9.632;2022-11-20T03:16:17;-3.00;99.90
15095;DHT22;7648;52.264;9.632;2022-11-20T03:20:19;-3.00;99.90
15095;DHT22;7648;52.264;9.632;2022-11-20T03:24:21;-3.00;99.90
15095;DHT22;7648;52.264;9.632;2022-11-20T03:28:23;-2.90;99.90
15095;DHT22;7648;52.264;9.632;2022-11-20T03:32:26;-2.90;99.90
15095;DHT22;7648;52.264;9.632;2022-11-20T03:36:29;-2.90;99.90
15095;DHT22;7648;52.264;9.632;2022-11-20T03:40:31;-2.90;99.90
15095;DHT22;7648;52.264;9.632;2022-11-20T03:44:35;-3.00;99.90
15095;DHT22;7648;52.264;9.632;2022-11-20T03:48:38;-3.00;99.90
15095;DHT22;7648;52.264;9.632;2022-11-20T03:52:40;-3.00;99.90
15095;DHT22;7648;52.264;9.632;2022-11-20T03:56:42;-3.10;99.90
15095;DHT22;7648;52.264;9.632;2022-11-20T04:00:44;-3.10;99.90
15095;DHT22;7648;52.264;9.632;2022-11-20T04:04:47;-3.10;99.90
15095;DHT22;7648;52.264;9.632;2022-11-20T04:08:49;-3.10;99.90
15095;DHT22;7648;52.264;9.632;2022-11-20T04:12:51;-3.10;99.90
15095;DHT22;7648;52.264;9.632;2022-11-20T04:16:53;-3.10;99.90
15095;DHT22;7648;52.264;9.632;2022-11-20T04:20:58;-3.10;99.90
15095;DHT22;7648;52.264;9.632;2022-11-20T04:25:00;-3.10;99.90
15095;DHT22;7648;52.264;9.632;2022-11-20T04:29:02;-3.10;99.90
15095;DHT22;7648;52.264;9.632;2022-11-20T04:33:05;-3.10;99.90
15095;DHT22;7648;52.264;9.632;2022-11-20T04:37:08;-3.10;99.90
15095;DHT22;7648;52.264;9.632;2022-11-20T04:41:14;-3.20;99.90
15095;DHT22;7648;52.264;9.632;2022-11-20T04:45:16;-3.10;99.90
15095;DHT22;7648;52.264;9.632;2022-11-20T04:49:18;-3.10;99.90
15095;DHT22;7648;52.264;9.632;2022-11-20T04:53:22;-3.10;99.90
15095;DHT22;7648;52.264;9.632;2022-11-20T04:57:24;-3.10;99.90
15095;DHT22;7648;52.264;9.632;2022-11-20T05:01:26;-2.90;99.90
15095;DHT22;7648;52.264;9.632;2022-11-20T05:05:28;-2.90;99.90
15095;DHT22;7648;52.264;9.632;2022-11-20T05:09:31;-2.80;99.90
15095;DHT22;7648;52.264;9.632;2022-11-20T05:13:34;-2.80;99.90
15095;DHT22;7648;52.264;9.632;2022-11-20T05:17:36;-2.70;99.90
15095;DHT22;7648;52.264;9.632;2022-11-20T05:21:38;-2.70;99.90
15095;DHT22;7648;52.264;9.632;2022-11-20T05:25:41;-2.60;99.90
15095;DHT22;7648;52.264;9.632;2022-11-20T05:29:43;-2.60;99.90
15095;DHT22;7648;52.264;9.632;2022-11-20T05:33:45;-2.60;99.90
15095;DHT22;7648;52.264;9.632;2022-11-20T05:37:47;-2.60;99.90
15095;DHT22;7648;52.264;9.632;2022-11-20T05:41:50;-2.60;99.90
15095;DHT22;7648;52.264;9.632;2022-11-20T05:46:14;-2.60;99.90
15095;DHT22;7648;52.264;9.632;2022-11-20T05:50:17;-2.60;99.90
15095;DHT22;7648;52.264;9.632;2022-11-20T05:54:19;-2.60;99.90
15095;DHT22;7648;52.264;9.632;2022-11-20T05:58:22;-2.60;99.90
15095;DHT22;7648;52.264;9.632;2022-11-20T06:02:24;-2.70;99.90
15095;DHT22;7648;52.264;9.632;2022-11-20T06:06:26;-2.60;99.90
15095;DHT22;7648;52.264;9.632;2022-11-20T06:10:28;-2.60;99.90
15095;DHT22;7648;52.264;9.632;2022-11-20T06:14:31;-2.60;99.90
15095;DHT22;7648;52.264;9.632;2022-11-20T06:18:33;-2.60;99.90
15095;DHT22;7648;52.264;9.632;2022-11-20T06:22:35;-2.50;99.90
15095;DHT22;7648;52.264;9.632;2022-11-20T06:26:37;-2.50;99.90
15095;DHT22;7648;52.264;9.632;2022-11-20T06:30:44;-2.50;99.90
15095;DHT22;7648;52.264;9.632;2022-11-20T06:34:46;-2.40;99.90
15095;DHT22;7648;52.264;9.632;2022-11-20T06:38:48;-2.30;99.90
15095;DHT22;7648;52.264;9.632;2022-11-20T06:42:50;-2.30;99.90
15095;DHT22;7648;52.264;9.632;2022-11-20T06:46:54;-2.20;99.90
15095;DHT22;7648;52.264;9.632;2022-11-20T06:50:56;-2.20;99.90
15095;DHT22;7648;52.264;9.632;2022-11-20T06:54:58;-2.10;99.90
15095;DHT22;7648;52.264;9.632;2022-11-20T06:59:04;-2.10;99.90
15095;DHT22;7648;52.264;9.632;2022-11-20T07:03:09;-2.00;99.90
15095;DHT22;7648;52.264;9.632;2022-11-20T07:07:11;-1.90;99.90
15095;DHT22;7648;52.264;9.632;2022-11-20T07:11:13;-1.80;99.90
15095;DHT22;7648;52.264;9.632;2022-11-20T07:15:15;-1.70;99.90
15095;DHT22;7648;52.264;9.632;2022-11-20T07:19:19;-1.60;99.90
15095;DHT22;7648;52.264;9.632;2022-11-20T07:23:21;-1.40;99.90
15095;DHT22;7648;52.264;9.632;2022-11-20T07:27:23;-1.40;99.90
15095;DHT22;7648;52.264;9.632;2022-11-20T07:31:24;-1.40;99.90
15095;DHT22;7648;52.264;9.632;2022-11-20T07:35:28;-1.40;99.90
15095;DHT22;7648;52.264;9.632;2022-11-20T07:39:30;-1.40;99.90
15095;DHT22;7648;52.264;9.632;2022-11-20T07:43:32;-1.30;99.90
15095;DHT22;7648;52.264;9.632;2022-11-20T07:47:35;-1.30;99.90
15095;DHT22;7648;52.264;9.632;2022-11-20T07:51:38;-1.30;99.90
15095;DHT22;7648;52.264;9.632;2022-11-20T07:55:40;-1.30;99.90
15095;DHT22;7648;52.264;9.632;2022-11-20T07:59:42;-1.30;99.90
15095;DHT22;7648;52.264;9.632;2022-11-20T08:03:45;-1.30;99.90
15095;DHT22;7648;52.264;9.632;2022-11-20T08:07:49;-1.30;99.90
15095;DHT22;7648;52.264;9.632;2022-11-20T08:11:51;-1.20;99.90
15095;DHT22;7648;52.264;9.632;2022-11-20T08:16:10;-1.20;99.90
15095;DHT22;7648;52.264;9.632;2022-11-20T08:20:12;-1.20;99.90
15095;DHT22;7648;52.264;9.632;2022-11-20T08:24:16;-1.10;99.90
15095;DHT22;7648;52.264;9.632;2022-11-20T08:28:18;-1.10;99.90
15095;DHT22;7648;52.264;9.632;2022-11-20T08:32:20;-1.00;99.90
15095;DHT22;7648;52.264;9.632;2022-11-20T08:36:23;-1.00;99.90
15095;DHT22;7648;52.264;9.632;2022-11-20T08:40:27;-0.90;99.90
15095;DHT22;7648;52.264;9.632;2022-11-20T08:44:29;-0.90;99.90
15095;DHT22;7648;52.264;9.632;2022-11-20T08:48:31;-0.80;99.90
15095;DHT22;7648;52.264;9.632;2022-11-20T08:52:33;-0.70;99.90
15095;DHT22;7648;52.264;9.632;2022-11-20T08:56:36;-0.70;99.90
15095;DHT22;7648;52.264;9.632;2022-11-20T09:00:38;-0.60;99.90
15095;DHT22;7648;52.264;9.632;2022-11-20T09:04:40;-0.50;99.90
15095;DHT22;7648;52.264;9.632;2022-11-20T09:08:42;-0.40;99.90
15095;DHT22;7648;52.264;9.632;2022-11-20T09:12:48;-0.30;99.90
15095;DHT22;7648;52.264;9.632;2022-11-20T09:16:51;-0.20;99.90
15095;DHT22;7648;52.264;9.632;2022-11-20T09:20:56;-0.10;99.90
15095;DHT22;7648;52.264;9.632;2022-11-20T09:24:58;0.00;99.90
15095;DHT22;7648;52.264;9.632;2022-11-20T09:29:01;0.10;99.90
15095;DHT22;7648;52.264;9.632;2022-11-20T09:33:04;0.20;99.90
15095;DHT22;7648;52.264;9.632;2022-11-20T09:37:06;0.20;99.90
15095;DHT22;7648;52.264;9.632;2022-11-20T09:41:24;0.20;99.90
15095;DHT22;7648;52.264;9.632;2022-11-20T09:45:39;0.20;99.90
15095;DHT22;7648;52.264;9.632;2022-11-20T09:49:59;0.10;99.90
15095;DHT22;7648;52.264;9.632;2022-11-20T09:54:13;0.10;99.90
15095;DHT22;7648;52.264;9.632;2022-11-20T09:58:25;0.20;99.90
15095;DHT22;7648;52.264;9.632;2022-11-20T10:02:39;0.30;99.90
15095;DHT22;7648;52.264;9.632;2022-11-20T10:06:47;0.40;99.90
15095;DHT22;7648;52.264;9.632;2022-11-20T10:10:55;0.50;99.90
15095;DHT22;7648;52.264;9.632;2022-11-20T10:15:11;0.70;99.90
15095;DHT22;7648;52.264;9.632;2022-11-20T10:19:30;0.70;99.90
15095;DHT22;7648;52.264;9.632;2022-11-20T10:23:48;0.90;99.90
15095;DHT22;7648;52.264;9.632;2022-11-20T10:28:15;1.00;99.90
15095;DHT22;7648;52.264;9.632;2022-11-20T10:32:20;1.10;99.90
15095;DHT22;7648;52.264;9.632;2022-11-20T10:36:30;1.20;99.90
15095;DHT22;7648;52.264;9.632;2022-11-20T10:40:37;1.30;99.90
15095;DHT22;7648;52.264;9.632;2022-11-20T10:44:46;1.40;99.90
15095;DHT22;7648;52.264;9.632;2022-11-20T10:49:09;1.40;99.90
15095;DHT22;7648;52.264;9.632;2022-11-20T10:53:20;1.40;99.90
15095;DHT22;7648;52.264;9.632;2022-11-20T10:57:34;1.50;99.90
15095;DHT22;7648;52.264;9.632;2022-11-20T11:01:40;1.60;99.90
15095;DHT22;7648;52.264;9.632;2022-11-20T11:05:46;1.70;99.90
15095;DHT22;7648;52.264;9.632;2022-11-20T11:09:55;1.70;99.90
15095;DHT22;7648;52.264;9.632;2022-11-20T11:14:05;1.80;99.90
15095;DHT22;7648;52.264;9.632;2022-11-20T11:18:09;1.90;99.90
15095;DHT22;7648;52.264;9.632;2022-11-20T11:22:16;2.00;99.90
15095;DHT22;7648;52.264;9.632;2022-11-20T11:26:22;2.10;99.90
15095;DHT22;7648;52.264;9.632;2022-11-20T11:30:26;2.20;99.90
15095;DHT22;7648;52.264;9.632;2022-11-20T11:34:28;2.30;99.90
15095;DHT22;7648;52.264;9.632;2022-11-20T11:38:35;2.30;99.90
15095;DHT22;7648;52.264;9.632;2022-11-20T11:42:43;2.40;99.90
15095;DHT22;7648;52.264;9.632;2022-11-20T11:46:51;2.40;99.90
15095;DHT22;7648;52.264;9.632;2022-11-20T11:50:54;2.30;99.90
15095;DHT22;7648;52.264;9.632;2022-11-20T11:54:59;2.30;99.90
15095;DHT22;7648;52.264;9.632;2022-11-20T11:59:06;2.30;99.90
15095;DHT22;7648;52.264;9.632;2022-11-20T12:03:17;2.30;99.90
15095;DHT22;7648;52.264;9.632;2022-11-20T12:07:25;2.40;99.90
15095;DHT22;7648;52.264;9.632;2022-11-20T12:11:34;2.40;99.90
15095;DHT22;7648;52.264;9.632;2022-11-20T12:15:44;2.60;99.90
15095;DHT22;7648;52.264;9.632;2022-11-20T12:19:46;2.70;99.90
15095;DHT22;7648;52.264;9.632;2022-11-20T12:23:58;2.70;99.90
15095;DHT22;7648;52.264;9.632;2022-11-20T12:33:05;2.80;99.90
15095;DHT22;7648;52.264;9.632;2022-11-20T12:37:21;2.90;99.90
15095;DHT22;7648;52.264;9.632;2022-11-20T12:41:40;3.10;99.90
15095;DHT22;7648;52.264;9.632;2022-11-20T12:46:18;3.20;99.90
15095;DHT22;7648;52.264;9.632;2022-11-20T12:50:31;3.10;99.90
15095;DHT22;7648;52.264;9.632;2022-11-20T12:54:55;3.00;99.90
15095;DHT22;7648;52.264;9.632;2022-11-20T12:59:14;2.80;99.90
15095;DHT22;7648;52.264;9.632;2022-11-20T13:03:34;2.60;99.90
15095;DHT22;7648;52.264;9.632;2022-11-20T13:07:40;2.50;99.90
15095;DHT22;7648;52.264;9.632;2022-11-20T13:11:47;2.30;99.90
15095;DHT22;7648;52.264;9.632;2022-11-20T13:15:54;2.30;99.90
15095;DHT22;7648;52.264;9.632;2022-11-20T13:19:58;2.40;99.90
15095;DHT22;7648;52.264;9.632;2022-11-20T13:24:05;2.50;99.90
15095;DHT22;7648;52.264;9.632;2022-11-20T13:28:26;2.60;99.90
15095;DHT22;7648;52.264;9.632;2022-11-20T13:32:29;2.80;99.90
15095;DHT22;7648;52.264;9.632;2022-11-20T13:36:33;2.90;99.90
15095;DHT22;7648;52.264;9.632;2022-11-20T13:40:50;2.90;99.90
15095;DHT22;7648;52.264;9.632;2022-11-20T13:44:54;3.00;99.90
15095;DHT22;7648;52.264;9.632;2022-11-20T13:48:57;2.90;99.90
15095;DHT22;7648;52.264;9.632;2022-11-20T13:53:03;2.90;99.90
15095;DHT22;7648;52.264;9.632;2022-11-20T13:57:27;2.90;99.90
15095;DHT22;7648;52.264;9.632;2022-11-20T14:01:32;2.90;99.90
15095;DHT22;7648;52.264;9.632;2022-11-20T14:05:37;3.00;99.90
15095;DHT22;7648;52.264;9.632;2022-11-20T14:09:49;3.00;99.90
15095;DHT22;7648;52.264;9.632;2022-11-20T14:13:58;3.00;99.90
15095;DHT22;7648;52.264;9.632;2022-11-20T14:18:12;3.10;99.90
15095;DHT22;7648;52.264;9.632;2022-11-20T14:22:19;3.10;99.90
15095;DHT22;7648;52.264;9.632;2022-11-20T14:26:22;3.10;99.90
15095;DHT22;7648;52.264;9.632;2022-11-20T14:30:38;3.10;99.90
15095;DHT22;7648;52.264;9.632;2022-11-20T14:34:46;3.10;99.90
15095;DHT22;7648;52.264;9.632;2022-11-20T14:38:49;3.00;99.90
15095;DHT22;7648;52.264;9.632;2022-11-20T14:42:51;3.00;99.90
15095;DHT22;7648;52.264;9.632;2022-11-20T14:46:55;2.90;99.90
15095;DHT22;7648;52.264;9.632;2022-11-20T14:50:57;2.90;99.90
15095;DHT22;7648;52.264;9.632;2022-11-20T14:54:59;2.80;99.90
15095;DHT22;7648;52.264;9.632;2022-11-20T14:59:01;2.70;99.90
15095;DHT22;7648;52.264;9.632;2022-11-20T15:03:15;2.50;99.90
15095;DHT22;7648;52.264;9.632;2022-11-20T15:07:24;2.40;99.90
15095;DHT22;7648;52.264;9.632;2022-11-20T15:11:29;2.20;99.90
15095;DHT22;7648;52.264;9.632;2022-11-20T15:15:35;2.10;99.90
15095;DHT22;7648;52.264;9.632;2022-11-20T15:19:39;1.90;99.90
15095;DHT22;7648;52.264;9.632;2022-11-20T15:23:41;1.80;99.90
15095;DHT22;7648;52.264;9.632;2022-11-20T15:27:44;1.80;99.90
15095;DHT22;7648;52.264;9.632;2022-11-20T15:31:47;1.60;99.90
15095;DHT22;7648;52.264;9.632;2022-11-20T15:35:52;1.50;99.90
15095;DHT22;7648;52.264;9.632;2022-11-20T15:39:54;1.40;99.90
15095;DHT22;7648;52.264;9.632;2022-11-20T15:43:56;1.30;99.90
15095;DHT22;7648;52.264;9.632;2022-11-20T15:47:59;1.20;99.90
15095;DHT22;7648;52.264;9.632;2022-11-20T15:52:02;1.10;99.90
15095;DHT22;7648;52.264;9.632;2022-11-20T15:56:04;1.00;99.90
15095;DHT22;7648;52.264;9.632;2022-11-20T16:00:08;0.90;99.90
15095;DHT22;7648;52.264;9.632;2022-11-20T16:04:12;0.80;99.90
15095;DHT22;7648;52.264;9.632;2022-11-20T16:08:15;0.70;99.90
15095;DHT22;7648;52.264;9.632;2022-11-20T16:12:17;0.70;99.90
15095;DHT22;7648;52.264;9.632;2022-11-20T16:16:36;0.60;99.90
15095;DHT22;7648;52.264;9.632;2022-11-20T16:20:40;0.60;99.90
15095;DHT22;7648;52.264;9.632;2022-11-20T16:24:43;0.50;99.90
15095;DHT22;7648;52.264;9.632;2022-11-20T16:28:45;0.60;99.90
15095;DHT22;7648;52.264;9.632;2022-11-20T16:32:47;0.60;99.90
15095;DHT22;7648;52.264;9.632;2022-11-20T16:36:49;0.60;99.90
15095;DHT22;7648;52.264;9.632;2022-11-20T16:40:53;0.60;99.90
15095;DHT22;7648;52.264;9.632;2022-11-20T16:45:01;0.60;99.90
15095;DHT22;7648;52.264;9.632;2022-11-20T16:49:04;0.70;99.90
15095;DHT22;7648;52.264;9.632;2022-11-20T16:53:07;0.70;99.90
15095;DHT22;7648;52.264;9.632;2022-11-20T16:57:10;0.70;99.90
15095;DHT22;7648;52.264;9.632;2022-11-20T17:01:13;0.70;99.90
15095;DHT22;7648;52.264;9.632;2022-11-20T17:05:15;0.70;99.90
15095;DHT22;7648;52.264;9.632;2022-11-20T17:09:17;0.60;99.90
15095;DHT22;7648;52.264;9.632;2022-11-20T17:13:21;0.60;99.90
15095;DHT22;7648;52.264;9.632;2022-11-20T17:17:22;0.60;99.90
15095;DHT22;7648;52.264;9.632;2022-11-20T17:21:25;0.50;99.90
15095;DHT22;7648;52.264;9.632;2022-11-20T17:25:31;0.50;99.90
15095;DHT22;7648;52.264;9.632;2022-11-20T17:29:35;0.50;99.90
15095;DHT22;7648;52.264;9.632;2022-11-20T17:33:39;0.50;99.90
15095;DHT22;7648;52.264;9.632;2022-11-20T17:37:41;0.50;99.90
15095;DHT22;7648;52.264;9.632;2022-11-20T17:41:44;0.50;99.90
15095;DHT22;7648;52.264;9.632;2022-11-20T17:46:08;0.50;99.90
15095;DHT22;7648;52.264;9.632;2022-11-20T17:50:11;0.50;99.90
15095;DHT22;7648;52.264;9.632;2022-11-20T17:54:13;0.50;99.90
15095;DHT22;7648;52.264;9.632;2022-11-20T17:58:15;0.60;99.90
15095;DHT22;7648;52.264;9.632;2022-11-20T18:02:18;0.60;99.90
15095;DHT22;7648;52.264;9.632;2022-11-20T18:06:22;0.60;99.90
15095;DHT22;7648;52.264;9.632;2022-11-20T18:10:24;0.60;99.90
15095;DHT22;7648;52.264;9.632;2022-11-20T18:14:26;0.60;99.90
15095;DHT22;7648;52.264;9.632;2022-11-20T18:18:33;0.60;99.90
15095;DHT22;7648;52.264;9.632;2022-11-20T18:22:35;0.60;99.90
15095;DHT22;7648;52.264;9.632;2022-11-20T18:26:37;0.60;99.90
15095;DHT22;7648;52.264;9.632;2022-11-20T18:30:39;0.60;99.90
15095;DHT22;7648;52.264;9.632;2022-11-20T18:34:43;0.60;99.90
15095;DHT22;7648;52.264;9.632;2022-11-20T18:38:46;0.60;99.90
15095;DHT22;7648;52.264;9.632;2022-11-20T18:42:48;0.50;99.90
15095;DHT22;7648;52.264;9.632;2022-11-20T18:47:09;0.50;99.90
15095;DHT22;7648;52.264;9.632;2022-11-20T18:51:12;0.60;99.90
15095;DHT22;7648;52.264;9.632;2022-11-20T18:55:15;0.60;99.90
15095;DHT22;7648;52.264;9.632;2022-11-20T18:59:18;0.60;99.90
15095;DHT22;7648;52.264;9.632;2022-11-20T19:03:20;0.60;99.90
15095;DHT22;7648;52.264;9.632;2022-11-20T19:07:24;0.60;99.90
15095;DHT22;7648;52.264;9.632;2022-11-20T19:11:27;0.60;99.90
15095;DHT22;7648;52.264;9.632;2022-11-20T19:15:29;0.60;99.90
15095;DHT22;7648;52.264;9.632;2022-11-20T19:19:33;0.70;99.90
15095;DHT22;7648;52.264;9.632;2022-11-20T19:23:37;0.70;99.90
15095;DHT22;7648;52.264;9.632;2022-11-20T19:27:39;0.70;99.90
15095;DHT22;7648;52.264;9.632;2022-11-20T19:31:41;0.80;99.90
15095;DHT22;7648;52.264;9.632;2022-11-20T19:35:43;0.70;99.90
15095;DHT22;7648;52.264;9.632;2022-11-20T19:39:46;0.80;99.90
15095;DHT22;7648;52.264;9.632;2022-11-20T19:43:48;0.80;99.90
15095;DHT22;7648;52.264;9.632;2022-11-20T19:47:50;0.80;99.90
15095;DHT22;7648;52.264;9.632;2022-11-20T19:51:52;0.80;99.90
15095;DHT22;7648;52.264;9.632;2022-11-20T19:55:56;0.80;99.90
15095;DHT22;7648;52.264;9.632;2022-11-20T19:59:58;0.80;99.90
15095;DHT22;7648;52.264;9.632;2022-11-20T20:04:00;0.80;99.90
15095;DHT22;7648;52.264;9.632;2022-11-20T20:08:05;0.80;99.90
15095;DHT22;7648;52.264;9.632;2022-11-20T20:12:08;0.80;99.90
15095;DHT22;7648;52.264;9.632;2022-11-20T20:16:11;0.80;99.90
15095;DHT22;7648;52.264;9.632;2022-11-20T20:20:13;0.80;99.90
15095;DHT22;7648;52.264;9.632;2022-11-20T20:24:16;0.80;99.90
15095;DHT22;7648;52.264;9.632;2022-11-20T20:28:19;0.80;99.90
15095;DHT22;7648;52.264;9.632;2022-11-20T20:32:21;0.80;99.90
15095;DHT22;7648;52.264;9.632;2022-11-20T20:36:23;0.80;99.90
15095;DHT22;7648;52.264;9.632;2022-11-20T20:40:25;0.90;99.90
15095;DHT22;7648;52.264;9.632;2022-11-20T20:44:29;0.90;99.90
15095;DHT22;7648;52.264;9.632;2022-11-20T20:48:48;0.90;99.90
15095;DHT22;7648;52.264;9.632;2022-11-20T20:52:50;1.00;99.90
15095;DHT22;7648;52.264;9.632;2022-11-20T20:56:52;1.00;99.90
15095;DHT22;7648;52.264;9.632;2022-11-20T21:01:00;1.00;99.90
15095;DHT22;7648;52.264;9.632;2022-11-20T21:05:02;1.00;99.90
15095;DHT22;7648;52.264;9.632;2022-11-20T21:09:04;1.00;99.90
15095;DHT22;7648;52.264;9.632;2022-11-20T21:13:06;1.00;99.90
15095;DHT22;7648;52.264;9.632;2022-11-20T21:17:10;1.00;99.90
15095;DHT22;7648;52.264;9.632;2022-11-20T21:21:13;1.00;99.90
15095;DHT22;7648;52.264;9.632;2022-11-20T21:25:35;1.10;99.90
15095;DHT22;7648;52.264;9.632;2022-11-20T21:29:37;1.00;99.90
15095;DHT22;7648;52.264;9.632;2022-11-20T21:33:42;1.10;99.90
15095;DHT22;7648;52.264;9.632;2022-11-20T21:37:44;1.10;99.90
15095;DHT22;7648;52.264;9.632;2022-11-20T21:41:46;1.00;99.90
15095;DHT22;7648;52.264;9.632;2022-11-20T21:45:48;1.10;99.90
15095;DHT22;7648;52.264;9.632;2022-11-20T21:49:52;1.10;99.90
15095;DHT22;7648;52.264;9.632;2022-11-20T21:53:54;1.00;99.90
15095;DHT22;7648;52.264;9.632;2022-11-20T21:57:56;1.00;99.90
15095;DHT22;7648;52.264;9.632;2022-11-20T22:01:58;1.00;99.90
15095;DHT22;7648;52.264;9.632;2022-11-20T22:06:02;0.90;99.90
15095;DHT22;7648;52.264;9.632;2022-11-20T22:10:04;0.90;99.90
15095;DHT22;7648;52.264;9.632;2022-11-20T22:14:09;0.90;99.90
15095;DHT22;7648;52.264;9.632;2022-11-20T22:18:23;0.90;99.90
15095;DHT22;7648;52.264;9.632;2022-11-20T22:22:26;0.90;99.90
15095;DHT22;7648;52.264;9.632;2022-11-20T22:26:29;0.90;99.90
15095;DHT22;7648;52.264;9.632;2022-11-20T22:30:31;0.90;99.90
15095;DHT22;7648;52.264;9.632;2022-11-20T22:34:33;0.80;99.90
15095;DHT22;7648;52.264;9.632;2022-11-20T22:38:37;0.90;99.90
15095;DHT22;7648;52.264;9.632;2022-11-20T22:42:43;0.90;99.90
15095;DHT22;7648;52.264;9.632;2022-11-20T22:46:44;0.90;99.90
15095;DHT22;7648;52.264;9.632;2022-11-20T22:50:46;0.90;99.90
15095;DHT22;7648;52.264;9.632;2022-11-20T22:54:50;0.90;99.90
15095;DHT22;7648;52.264;9.632;2022-11-20T22:58:52;0.90;99.90
15095;DHT22;7648;52.264;9.632;2022-11-20T23:02:54;0.90;99.90
15095;DHT22;7648;52.264;9.632;2022-11-20T23:06:56;0.90;99.90
15095;DHT22;7648;52.264;9.632;2022-11-20T23:11:00;1.00;99.90
15095;DHT22;7648;52.264;9.632;2022-11-20T23:15:03;1.00;99.90
15095;DHT22;7648;52.264;9.632;2022-11-20T23:19:06;1.00;99.90
15095;DHT22;7648;52.264;9.632;2022-11-20T23:23:09;1.00;99.90
15095;DHT22;7648;52.264;9.632;2022-11-20T23:27:13;1.00;99.90
15095;DHT22;7648;52.264;9.632;2022-11-20T23:31:15;1.00;99.90
15095;DHT22;7648;52.264;9.632;2022-11-20T23:35:17;1.00;99.90
15095;DHT22;7648;52.264;9.632;2022-11-20T23:39:19;1.00;99.90
15095;DHT22;7648;52.264;9.632;2022-11-20T23:43:22;1.00;99.90
15095;DHT22;7648;52.264;9.632;2022-11-20T23:47:24;1.00;99.90
15095;DHT22;7648;52.264;9.632;2022-11-20T23:51:26;1.00;99.90
15095;DHT22;7648;52.264;9.632;2022-11-20T23:55:28;0.90;99.90
15095;DHT22;7648;52.264;9.632;2022-11-20T23:59:31;1.00;99.90
